Time;durP1;ratioP1;P1;durP2;ratioP2;P2;SDS_P1;SDS_P2;PMS_P1;PMS_P2;Temp;Humidity;BMP_temperature;BMP_pressure;BME280_temperature;BME280_humidity;BME280_pressure;Samples;Min_cycle;Max_cycle;Signal;HPM_P1;HPM_P2
2022/09/16 00:00:28;;;;;;;11.90;5.60;;;;;;;;;;5014461;28;20045;-62
2022/09/16 00:02:55;;;;;;;13.80;5.40;;;;;;;;;;5014642;28;20435;-62
2022/09/16 00:05:21;;;;;;;13.63;5.15;;;;;;;;;;5014267;28;20037;-61
2022/09/16 00:07:47;;;;;;;13.57;5.10;;;;;;;;;;5060272;22;20049;-61
2022/09/16 00:10:13;;;;;;;14.13;5.50;;;;;;;;;;5052981;28;20047;-62
2022/09/16 00:12:40;;;;;;;15.02;5.32;;;;;;;;;;5068192;28;20159;-60
2022/09/16 00:15:06;;;;;;;13.95;5.70;;;;;;;;;;5068068;28;20040;-60
2022/09/16 00:17:33;;;;;;;14.43;5.30;;;;;;;;;;5067919;28;20059;-62
2022/09/16 00:19:59;;;;;;;16.77;5.78;;;;;;;;;;5068066;28;20029;-60
2022/09/16 00:22:27;;;;;;;17.83;7.15;;;;;;;;;;5052650;28;20505;-60
2022/09/16 00:24:53;;;;;;;14.48;5.60;;;;;;;;;;5068076;28;20033;-61
2022/09/16 00:27:19;;;;;;;14.73;6.03;;;;;;;;;;5067743;28;20029;-63
2022/09/16 00:29:45;;;;;;;14.93;5.72;;;;;;;;;;5067890;28;20025;-62
2022/09/16 00:32:11;;;;;;;16.17;5.40;;;;;;;;;;5052479;28;20028;-61
2022/09/16 00:34:37;;;;;;;16.27;6.10;;;;;;;;;;5067754;28;20025;-59
2022/09/16 00:37:07;;;;;;;16.67;6.05;;;;;;;;;;5052327;28;20108;-61
2022/09/16 00:39:33;;;;;;;16.50;6.18;;;;;;;;;;5052244;28;20104;-62
2022/09/16 00:41:59;;;;;;;13.60;5.40;;;;;;;;;;5067705;28;20033;-60
2022/09/16 00:44:43;;;;;;;12.20;5.65;;;;;;;;;;5067598;28;20073;-61
2022/09/16 00:47:09;;;;;;;14.70;6.15;;;;;;;;;;5051741;28;20055;-57
2022/09/16 00:49:35;;;;;;;13.02;5.18;;;;;;;;;;5052381;28;20050;-59
2022/09/16 00:52:04;;;;;;;14.70;5.45;;;;;;;;;;5052356;28;20052;-61
2022/09/16 00:54:31;;;;;;;14.30;5.50;;;;;;;;;;5052314;28;20045;-59
2022/09/16 00:56:59;;;;;;;15.70;5.70;;;;;;;;;;5052108;28;20422;-63
2022/09/16 00:59:27;;;;;;;14.63;5.70;;;;;;;;;;5067255;28;20032;-62
2022/09/16 01:01:54;;;;;;;13.80;5.47;;;;;;;;;;5052146;28;20500;-62
2022/09/16 01:04:23;;;;;;;14.77;5.53;;;;;;;;;;5052245;28;20047;-62
2022/09/16 01:06:53;;;;;;;14.40;5.40;;;;;;;;;;5067123;28;20047;-62
2022/09/16 01:09:21;;;;;;;14.00;5.63;;;;;;;;;;5067251;28;20362;-62
2022/09/16 01:11:47;;;;;;;13.80;5.60;;;;;;;;;;5051935;28;20021;-63
2022/09/16 01:17:02;;;;;;;14.57;6.20;;;;;;;;;;5052167;28;20032;-59
2022/09/16 01:19:37;;;;;;;12.55;5.90;;;;;;;;;;5051722;28;20546;-62
2022/09/16 01:22:03;;;;;;;16.67;6.97;;;;;;;;;;5051937;28;20349;-61
2022/09/16 01:24:48;;;;;;;16.58;5.75;;;;;;;;;;5067366;28;20024;-61
2022/09/16 01:27:19;;;;;;;18.48;6.18;;;;;;;;;;5051605;28;20055;-63
2022/09/16 01:29:45;;;;;;;15.60;6.15;;;;;;;;;;5051821;28;20505;-62
2022/09/16 01:32:20;;;;;;;15.38;6.10;;;;;;;;;;5051707;28;20108;-63
2022/09/16 01:34:52;;;;;;;15.05;6.00;;;;;;;;;;5067251;28;20021;-62
2022/09/16 01:37:20;;;;;;;15.90;7.05;;;;;;;;;;5051425;28;20024;-63
2022/09/16 01:39:46;;;;;;;;;;;;;;;;;;5052283;28;20471;-63
2022/09/16 01:42:31;;;;;;;15.75;6.47;;;;;;;;;;5051829;28;19939;-63
2022/09/16 01:45:06;;;;;;;16.75;6.20;;;;;;;;;;5051885;28;20028;-62
2022/09/16 01:47:41;;;;;;;16.33;6.38;;;;;;;;;;5051364;28;20473;-63
2022/09/16 01:50:11;;;;;;;16.23;6.25;;;;;;;;;;5051686;28;20384;-62
2022/09/16 01:52:46;;;;;;;15.15;5.90;;;;;;;;;;5067215;28;20013;-64
2022/09/16 01:55:15;;;;;;;14.95;5.93;;;;;;;;;;5051654;28;20700;-64
2022/09/16 01:57:44;;;;;;;16.60;6.13;;;;;;;;;;5051141;28;20104;-61
2022/09/16 02:00:10;;;;;;;;;;;;;;;;;;5052097;28;20021;-62
2022/09/16 02:02:45;;;;;;;15.73;6.80;;;;;;;;;;5050306;28;19958;-61
2022/09/16 02:05:14;;;;;;;14.27;6.30;;;;;;;;;;5051487;28;20048;-62
2022/09/16 02:07:43;;;;;;;17.95;7.00;;;;;;;;;;5050989;28;20032;-63
2022/09/16 02:10:13;;;;;;;14.13;6.13;;;;;;;;;;5052577;28;20035;-61
2022/09/16 02:12:40;;;;;;;17.77;6.05;;;;;;;;;;5055310;28;20377;-64
2022/09/16 02:15:08;;;;;;;15.43;5.93;;;;;;;;;;5055371;28;20017;-59
2022/09/16 02:17:37;;;;;;;14.48;6.38;;;;;;;;;;5055008;28;20021;-58
2022/09/16 02:20:06;;;;;;;14.57;6.03;;;;;;;;;;5070778;28;20032;-58
2022/09/16 02:22:43;;;;;;;17.50;6.97;;;;;;;;;;5070906;28;20439;-60
2022/09/16 02:25:10;;;;;;;14.60;6.72;;;;;;;;;;5070504;28;20592;-61
2022/09/16 02:27:38;;;;;;;14.85;6.30;;;;;;;;;;5054727;28;20045;-62
2022/09/16 02:30:07;;;;;;;16.08;6.40;;;;;;;;;;5055188;28;20457;-60
2022/09/16 02:32:36;;;;;;;16.77;6.97;;;;;;;;;;5054983;28;20032;-60
2022/09/16 02:35:02;;;;;;;;;;;;;;;;;;5055500;28;20097;-62
2022/09/16 02:37:30;;;;;;;16.10;6.53;;;;;;;;;;5054739;28;20005;-55
2022/09/16 02:40:01;;;;;;;17.10;6.60;;;;;;;;;;5054971;28;20028;-61
2022/09/16 02:42:27;;;;;;;17.52;6.63;;;;;;;;;;5055097;28;20079;-60
2022/09/16 02:44:53;;;;;;;16.48;6.88;;;;;;;;;;5054854;28;20045;-60
2022/09/16 02:47:46;;;;;;;14.70;6.95;;;;;;;;;;5069885;28;20112;-61
2022/09/16 02:50:15;;;;;;;17.55;6.68;;;;;;;;;;5032069;28;20124;-61
2022/09/16 02:52:53;;;;;;;14.93;6.70;;;;;;;;;;5055102;28;20048;-61
2022/09/16 02:55:22;;;;;;;16.55;6.93;;;;;;;;;;5055190;28;20465;-61
2022/09/16 02:57:49;;;;;;;15.63;7.00;;;;;;;;;;5054497;28;20376;-62
2022/09/16 03:00:15;;;;;;;13.45;6.60;;;;;;;;;;5070290;28;20021;-60
2022/09/16 03:02:41;;;;;;;15.13;7.05;;;;;;;;;;5054646;28;20024;-61
2022/09/16 03:05:08;;;;;;;17.00;6.75;;;;;;;;;;5054483;28;20075;-62
2022/09/16 03:07:34;;;;;;;16.00;7.10;;;;;;;;;;5054194;28;20025;-62
2022/09/16 03:10:00;;;;;;;15.27;7.43;;;;;;;;;;5054329;28;20059;-61
2022/09/16 03:12:32;;;;;;;17.25;7.13;;;;;;;;;;5054317;28;20017;-58
2022/09/16 03:15:04;;;;;;;17.35;7.68;;;;;;;;;;5054329;28;20039;-60
2022/09/16 03:17:30;;;;;;;19.70;7.90;;;;;;;;;;5053962;28;20013;-61
2022/09/16 03:20:04;;;;;;;17.15;7.50;;;;;;;;;;5054265;28;20709;-58
2022/09/16 03:22:50;;;;;;;19.52;8.30;;;;;;;;;;5068370;28;20024;-61
2022/09/16 03:25:26;;;;;;;16.27;7.47;;;;;;;;;;5023294;28;20041;-62
2022/09/16 03:27:57;;;;;;;20.08;7.47;;;;;;;;;;5053664;28;20040;-61
2022/09/16 03:30:23;;;;;;;19.45;7.78;;;;;;;;;;5054130;28;20020;-61
2022/09/16 03:32:53;;;;;;;18.13;7.90;;;;;;;;;;5069192;28;20029;-62
2022/09/16 03:35:19;;;;;;;18.02;8.18;;;;;;;;;;5053904;28;20062;-61
2022/09/16 03:37:46;;;;;;;19.13;8.70;;;;;;;;;;5053484;28;20112;-58
2022/09/16 03:40:14;;;;;;;19.35;9.45;;;;;;;;;;5053925;28;20017;-60
2022/09/16 03:42:41;;;;;;;17.55;9.27;;;;;;;;;;5053694;28;20021;-60
2022/09/16 03:45:08;;;;;;;20.58;11.52;;;;;;;;;;5068987;28;20041;-61
2022/09/16 03:47:34;;;;;;;16.63;9.77;;;;;;;;;;5053545;28;20028;-61
2022/09/16 03:50:00;;;;;;;18.77;10.00;;;;;;;;;;5069029;28;20017;-62
2022/09/16 03:52:26;;;;;;;23.75;9.95;;;;;;;;;;5053329;28;20041;-61
2022/09/16 03:54:52;;;;;;;17.65;9.27;;;;;;;;;;5069059;28;20441;-59
2022/09/16 03:57:18;;;;;;;18.05;10.05;;;;;;;;;;5068477;28;20053;-61
2022/09/16 03:59:44;;;;;;;19.83;9.10;;;;;;;;;;5053466;28;20021;-62
2022/09/16 04:02:10;;;;;;;16.42;9.48;;;;;;;;;;5053292;28;20458;-57
2022/09/16 04:04:36;;;;;;;18.20;9.30;;;;;;;;;;5053015;28;20053;-60
2022/09/16 04:07:02;;;;;;;18.60;9.15;;;;;;;;;;5052866;28;20045;-60
2022/09/16 04:09:28;;;;;;;17.67;9.18;;;;;;;;;;5052954;28;20083;-63
2022/09/16 04:11:54;;;;;;;17.73;8.65;;;;;;;;;;5052991;28;20033;-62
2022/09/16 04:14:20;;;;;;;21.88;9.82;;;;;;;;;;5053132;28;20074;-64
2022/09/16 04:16:46;;;;;;;18.83;9.13;;;;;;;;;;5052702;28;20435;-56
2022/09/16 04:19:12;;;;;;;17.83;8.57;;;;;;;;;;5068107;28;20374;-62
2022/09/16 04:21:39;;;;;;;17.63;9.27;;;;;;;;;;5068257;28;20140;-61
2022/09/16 04:24:05;;;;;;;16.75;8.25;;;;;;;;;;5068175;28;20021;-64
2022/09/16 04:26:31;;;;;;;19.02;9.40;;;;;;;;;;5067981;28;20025;-63
2022/09/16 04:28:57;;;;;;;20.67;9.43;;;;;;;;;;5052730;28;20025;-62
2022/09/16 04:31:23;;;;;;;17.40;8.60;;;;;;;;;;5067884;28;20025;-63
2022/09/16 04:33:49;;;;;;;16.40;8.73;;;;;;;;;;5067714;28;20025;-61
2022/09/16 04:36:17;;;;;;;17.40;9.27;;;;;;;;;;5052433;28;20078;-62
2022/09/16 04:38:44;;;;;;;23.17;10.63;;;;;;;;;;5067734;28;20091;-63
2022/09/16 04:41:12;;;;;;;18.63;8.65;;;;;;;;;;5052544;28;20402;-61
2022/09/16 04:43:38;;;;;;;19.15;8.23;;;;;;;;;;5052684;28;20104;-61
2022/09/16 04:46:05;;;;;;;16.65;7.97;;;;;;;;;;5067685;28;20025;-64
2022/09/16 04:48:32;;;;;;;17.80;8.32;;;;;;;;;;5067381;28;20036;-64
2022/09/16 04:51:08;;;;;;;16.23;8.32;;;;;;;;;;5052253;28;20028;-62
2022/09/16 04:53:34;;;;;;;20.52;9.65;;;;;;;;;;5052245;28;20480;-61
2022/09/16 04:56:08;;;;;;;16.73;8.00;;;;;;;;;;5067515;28;20021;-62
2022/09/16 04:58:34;;;;;;;18.27;7.97;;;;;;;;;;5067200;28;20016;-61
2022/09/16 05:01:14;;;;;;;18.05;8.20;;;;;;;;;;5052384;28;20028;-62
2022/09/16 05:03:40;;;;;;;19.42;8.18;;;;;;;;;;5052111;28;20025;-63
2022/09/16 05:06:11;;;;;;;16.58;8.15;;;;;;;;;;5067464;28;20428;-63
2022/09/16 05:08:37;;;;;;;16.45;8.63;;;;;;;;;;5051723;28;20120;-63
2022/09/16 05:11:04;;;;;;;17.25;7.80;;;;;;;;;;5067342;28;20021;-60
2022/09/16 05:13:30;;;;;;;18.90;7.40;;;;;;;;;;5051884;28;20021;-58
2022/09/16 05:16:00;;;;;;;16.15;7.70;;;;;;;;;;5052073;28;20060;-64
2022/09/16 05:18:27;;;;;;;16.67;7.90;;;;;;;;;;5066865;28;20025;-64
2022/09/16 05:21:00;;;;;;;15.95;7.13;;;;;;;;;;5067281;28;20029;-58
2022/09/16 05:23:26;;;;;;;15.85;6.55;;;;;;;;;;5067723;28;20124;-63
2022/09/16 05:25:53;;;;;;;17.70;7.30;;;;;;;;;;5067365;28;20029;-60
2022/09/16 05:28:19;;;;;;;14.70;6.43;;;;;;;;;;5051266;28;20035;-61
2022/09/16 05:30:45;;;;;;;16.17;7.03;;;;;;;;;;5051652;28;20044;-63
2022/09/16 05:33:11;;;;;;;15.57;6.75;;;;;;;;;;5051717;28;20021;-62
2022/09/16 05:35:37;;;;;;;15.55;6.95;;;;;;;;;;5066685;28;20048;-63
2022/09/16 05:38:03;;;;;;;14.50;6.50;;;;;;;;;;5064078;28;20029;-62
2022/09/16 05:40:29;;;;;;;18.27;6.45;;;;;;;;;;5049952;28;20066;-61
2022/09/16 05:42:55;;;;;;;14.38;6.35;;;;;;;;;;5051002;28;20029;-59
2022/09/16 05:45:21;;;;;;;15.10;6.30;;;;;;;;;;5048022;28;20101;-60
2022/09/16 05:47:50;;;;;;;14.60;6.50;;;;;;;;;;5033712;28;20032;-61
2022/09/16 05:50:16;;;;;;;13.32;6.60;;;;;;;;;;5035224;28;20018;-61
2022/09/16 05:52:42;;;;;;;15.10;6.60;;;;;;;;;;5035164;28;20155;-61
2022/09/16 05:55:08;;;;;;;14.63;6.57;;;;;;;;;;5048578;28;20028;-62
2022/09/16 05:57:34;;;;;;;16.13;6.40;;;;;;;;;;5054645;28;20025;-61
2022/09/16 06:00:00;;;;;;;14.95;6.38;;;;;;;;;;5055103;28;20135;-61
2022/09/16 06:02:26;;;;;;;13.80;6.45;;;;;;;;;;5055322;28;20033;-59
2022/09/16 06:04:52;;;;;;;12.32;6.00;;;;;;;;;;5054006;28;20032;-60
2022/09/16 06:07:18;;;;;;;15.38;5.90;;;;;;;;;;5059660;22;20043;-63
2022/09/16 06:09:44;;;;;;;13.73;5.25;;;;;;;;;;4995985;28;20109;-62
2022/09/16 06:12:10;;;;;;;14.10;6.05;;;;;;;;;;5008389;28;20145;-64
2022/09/16 06:14:36;;;;;;;16.17;7.25;;;;;;;;;;5015426;28;20053;-61
2022/09/16 06:17:02;;;;;;;14.98;6.30;;;;;;;;;;5015424;28;20029;-61
2022/09/16 06:19:29;;;;;;;13.77;6.50;;;;;;;;;;5015349;28;20018;-62
2022/09/16 06:21:55;;;;;;;14.15;6.40;;;;;;;;;;5015524;28;20053;-61
2022/09/16 06:24:21;;;;;;;15.40;6.18;;;;;;;;;;5015506;28;20462;-62
2022/09/16 06:26:48;;;;;;;15.55;6.60;;;;;;;;;;5015467;28;20034;-62
2022/09/16 06:29:15;;;;;;;17.42;6.85;;;;;;;;;;5014058;28;20382;-62
2022/09/16 06:31:41;;;;;;;17.73;6.40;;;;;;;;;;5013990;28;20029;-62
2022/09/16 06:34:08;;;;;;;14.95;6.47;;;;;;;;;;5015604;28;20125;-62
2022/09/16 06:36:36;;;;;;;14.82;6.90;;;;;;;;;;5014770;28;20026;-62
2022/09/16 06:39:03;;;;;;;16.08;6.30;;;;;;;;;;4995817;28;20478;-60
2022/09/16 06:41:30;;;;;;;15.30;6.70;;;;;;;;;;4995894;28;20038;-56
2022/09/16 06:43:56;;;;;;;15.95;6.53;;;;;;;;;;4995672;28;20030;-59
2022/09/16 06:46:24;;;;;;;16.00;6.32;;;;;;;;;;4995579;28;20360;-57
2022/09/16 06:48:51;;;;;;;17.03;6.83;;;;;;;;;;4995772;28;20545;-59
2022/09/16 06:51:19;;;;;;;15.52;6.63;;;;;;;;;;4994282;28;20133;-55
2022/09/16 06:53:45;;;;;;;13.85;6.63;;;;;;;;;;4995515;28;20049;-58
2022/09/16 06:56:13;;;;;;;13.30;6.60;;;;;;;;;;4995408;28;20474;-57
2022/09/16 06:58:43;;;;;;;13.68;6.35;;;;;;;;;;4995598;28;20026;-57
2022/09/16 07:01:13;;;;;;;16.45;6.60;;;;;;;;;;4995464;28;20029;-57
2022/09/16 07:03:40;;;;;;;13.50;6.18;;;;;;;;;;4995804;28;20055;-56
2022/09/16 07:06:07;;;;;;;14.82;6.18;;;;;;;;;;4995617;28;20059;-57
2022/09/16 07:08:34;;;;;;;14.50;6.15;;;;;;;;;;4995076;28;20037;-56
2022/09/16 07:11:01;;;;;;;12.70;5.90;;;;;;;;;;4997036;28;20022;-56
2022/09/16 07:13:27;;;;;;;21.17;6.57;;;;;;;;;;5015201;28;20072;-54
2022/09/16 07:15:53;;;;;;;14.32;6.35;;;;;;;;;;5015080;28;20036;-55
2022/09/16 07:18:20;;;;;;;13.60;6.30;;;;;;;;;;5014810;28;20077;-57
2022/09/16 07:20:46;;;;;;;12.95;5.80;;;;;;;;;;5013834;28;20044;-54
2022/09/16 07:23:12;;;;;;;14.38;6.22;;;;;;;;;;5014708;28;20097;-60
2022/09/16 07:25:38;;;;;;;16.73;7.25;;;;;;;;;;5015232;28;20450;-56
2022/09/16 07:28:04;;;;;;;12.75;6.15;;;;;;;;;;5014597;28;20109;-59
2022/09/16 07:30:33;;;;;;;13.35;6.50;;;;;;;;;;5014265;28;20048;-60
2022/09/16 07:32:59;;;;;;;14.80;6.35;;;;;;;;;;5014346;28;20014;-57
2022/09/16 07:35:25;;;;;;;12.82;5.97;;;;;;;;;;5013903;28;20503;-58
2022/09/16 07:37:51;;;;;;;13.85;6.30;;;;;;;;;;5003165;28;20320;-62
2022/09/16 07:40:17;;;;;;;12.88;6.10;;;;;;;;;;4995329;28;20018;-62
2022/09/16 07:42:43;;;;;;;14.20;6.28;;;;;;;;;;4995321;28;20029;-61
2022/09/16 07:45:09;;;;;;;13.55;6.32;;;;;;;;;;4993592;28;20029;-60
2022/09/16 07:47:35;;;;;;;15.13;6.50;;;;;;;;;;4994639;28;20027;-57
2022/09/16 07:50:01;;;;;;;12.50;6.13;;;;;;;;;;4995167;28;20057;-62
2022/09/16 07:52:30;;;;;;;14.60;6.28;;;;;;;;;;4995128;28;20026;-63
2022/09/16 07:54:56;;;;;;;13.27;6.13;;;;;;;;;;4994766;28;20018;-63
2022/09/16 07:57:22;;;;;;;14.65;6.28;;;;;;;;;;4994579;28;20104;-63
2022/09/16 07:59:49;;;;;;;12.90;6.60;;;;;;;;;;4994843;28;20602;-61
2022/09/16 08:02:15;;;;;;;16.70;6.53;;;;;;;;;;4994683;28;20033;-62
2022/09/16 08:04:41;;;;;;;13.50;6.60;;;;;;;;;;4994515;28;20038;-63
2022/09/16 08:07:07;;;;;;;13.65;6.70;;;;;;;;;;4994150;28;20126;-63
2022/09/16 08:09:33;;;;;;;17.88;7.05;;;;;;;;;;4994034;28;20026;-61
2022/09/16 08:12:01;;;;;;;16.05;6.72;;;;;;;;;;4994682;28;20097;-62
2022/09/16 08:14:27;;;;;;;13.70;6.47;;;;;;;;;;4994529;28;20049;-63
2022/09/16 08:16:53;;;;;;;16.55;7.28;;;;;;;;;;4993855;28;20034;-63
2022/09/16 08:19:21;;;;;;;15.05;7.57;;;;;;;;;;4993997;28;20076;-63
2022/09/16 08:21:47;;;;;;;13.97;7.20;;;;;;;;;;4994855;28;20019;-63
2022/09/16 08:24:13;;;;;;;15.32;7.20;;;;;;;;;;4994450;28;20022;-64
2022/09/16 08:26:39;;;;;;;14.43;7.20;;;;;;;;;;4992900;28;20180;-64
2022/09/16 08:29:06;;;;;;;13.40;6.90;;;;;;;;;;4992542;28;20441;-63
2022/09/16 08:31:32;;;;;;;13.88;7.22;;;;;;;;;;4994102;28;20054;-63
2022/09/16 08:33:58;;;;;;;14.90;7.70;;;;;;;;;;4993983;28;20482;-64
2022/09/16 08:36:25;;;;;;;15.85;7.97;;;;;;;;;;4994033;28;20097;-64
2022/09/16 08:38:52;;;;;;;16.08;7.70;;;;;;;;;;4992258;28;20045;-65
2022/09/16 08:41:28;;;;;;;14.63;7.78;;;;;;;;;;4994017;28;20497;-64
2022/09/16 08:44:03;;;;;;;14.60;7.00;;;;;;;;;;4993907;28;20478;-64
2022/09/16 08:46:36;;;;;;;14.95;8.18;;;;;;;;;;4993975;28;20028;-64
2022/09/16 08:49:05;;;;;;;14.38;7.95;;;;;;;;;;4993490;28;20463;-64
2022/09/16 08:51:31;;;;;;;16.10;7.68;;;;;;;;;;4994037;28;20135;-65
2022/09/16 08:54:10;;;;;;;16.25;7.68;;;;;;;;;;4993937;28;20045;-65
2022/09/16 08:56:37;;;;;;;17.17;8.13;;;;;;;;;;4993794;28;20098;-64
2022/09/16 08:59:09;;;;;;;16.35;8.52;;;;;;;;;;4993334;28;20022;-64
2022/09/16 09:01:38;;;;;;;20.55;8.30;;;;;;;;;;4993581;28;20007;-64
2022/09/16 09:04:04;;;;;;;16.95;8.73;;;;;;;;;;4991846;28;20053;-64
2022/09/16 09:06:49;;;;;;;18.20;8.40;;;;;;;;;;4992277;28;20501;-65
2022/09/16 09:09:35;;;;;;;17.98;8.57;;;;;;;;;;4993109;28;20038;-63
2022/09/16 09:12:01;;;;;;;16.52;8.82;;;;;;;;;;4999752;28;20033;-66
2022/09/16 09:14:45;;;;;;;17.35;8.15;;;;;;;;;;5018920;28;20018;-64
2022/09/16 09:17:27;;;;;;;18.08;8.48;;;;;;;;;;5017841;28;20018;-66
2022/09/16 09:20:04;;;;;;;17.02;8.20;;;;;;;;;;5018158;28;20104;-65
2022/09/16 09:22:37;;;;;;;18.45;8.77;;;;;;;;;;5014283;28;20052;-65
2022/09/16 09:25:06;;;;;;;17.33;9.10;;;;;;;;;;5011884;28;20512;-64
2022/09/16 09:27:35;;;;;;;18.02;8.73;;;;;;;;;;5011616;28;20026;-67
2022/09/16 09:30:16;;;;;;;18.05;8.60;;;;;;;;;;5011853;28;20026;-66
2022/09/16 09:32:53;;;;;;;17.92;9.13;;;;;;;;;;5012923;28;20164;-66
2022/09/16 09:35:22;;;;;;;16.65;9.05;;;;;;;;;;5011508;28;20109;-66
2022/09/16 09:38:06;;;;;;;16.92;8.70;;;;;;;;;;5001108;28;20027;-64
2022/09/16 09:40:42;;;;;;;17.90;8.23;;;;;;;;;;4991124;28;20037;-64
2022/09/16 09:43:14;;;;;;;19.73;9.07;;;;;;;;;;4992556;28;20029;-64
2022/09/16 09:45:43;;;;;;;16.63;9.23;;;;;;;;;;4994132;28;20022;-64
2022/09/16 09:48:21;;;;;;;19.75;9.77;;;;;;;;;;4994517;28;20023;-64
2022/09/16 09:50:48;;;;;;;16.60;8.35;;;;;;;;;;4993848;28;20031;-65
2022/09/16 09:53:27;;;;;;;18.95;9.30;;;;;;;;;;4993197;28;20030;-64
2022/09/16 09:56:13;;;;;;;16.02;8.82;;;;;;;;;;4993222;28;20022;-64
2022/09/16 09:58:39;;;;;;;18.55;9.05;;;;;;;;;;4988312;28;20053;-66
2022/09/16 10:01:06;;;;;;;16.38;9.27;;;;;;;;;;5006068;28;20037;-64
2022/09/16 10:03:32;;;;;;;15.93;8.40;;;;;;;;;;5015959;28;20029;-64
2022/09/16 10:05:58;;;;;;;17.77;9.25;;;;;;;;;;5016229;28;20053;-65
2022/09/16 10:08:29;;;;;;;18.00;8.80;;;;;;;;;;5015183;28;20038;-66
2022/09/16 10:11:02;;;;;;;16.23;8.82;;;;;;;;;;5011998;28;20022;-66
2022/09/16 10:13:29;;;;;;;16.45;9.75;;;;;;;;;;5014009;28;20048;-64
2022/09/16 10:16:12;;;;;;;17.67;9.70;;;;;;;;;;5012441;28;20018;-65
2022/09/16 10:18:38;;;;;;;17.60;9.30;;;;;;;;;;5014135;28;20491;-66
2022/09/16 10:21:06;;;;;;;16.73;9.00;;;;;;;;;;5014792;28;20030;-68
2022/09/16 10:23:33;;;;;;;17.63;9.00;;;;;;;;;;5012678;28;20036;-67
2022/09/16 10:26:18;;;;;;;16.60;8.70;;;;;;;;;;5012427;28;20402;-66
2022/09/16 10:29:19;;;;;;;16.67;8.95;;;;;;;;;;5012429;28;20506;-67
2022/09/16 10:31:46;;;;;;;17.40;8.48;;;;;;;;;;4937851;29;20038;-67
2022/09/16 10:34:23;;;;;;;15.63;8.63;;;;;;;;;;4998636;28;20533;-67
2022/09/16 10:36:58;;;;;;;17.35;9.45;;;;;;;;;;5013635;28;20080;-68
2022/09/16 10:39:25;;;;;;;14.98;8.68;;;;;;;;;;4995802;28;20037;-65
2022/09/16 10:41:52;;;;;;;16.42;8.75;;;;;;;;;;4994809;28;20473;-66
2022/09/16 10:44:24;;;;;;;18.17;9.02;;;;;;;;;;4995668;28;20036;-66
2022/09/16 10:46:52;;;;;;;16.73;8.90;;;;;;;;;;4995779;28;20026;-66
2022/09/16 10:49:19;;;;;;;18.88;8.63;;;;;;;;;;4995142;28;20114;-65
2022/09/16 10:51:45;;;;;;;16.03;8.70;;;;;;;;;;4995423;28;20093;-65
2022/09/16 10:54:22;;;;;;;17.35;9.90;;;;;;;;;;4994497;28;20022;-66
2022/09/16 10:56:50;;;;;;;17.40;8.95;;;;;;;;;;4995252;28;20479;-65
2022/09/16 10:59:17;;;;;;;15.63;8.52;;;;;;;;;;4995153;28;20025;-65
2022/09/16 11:01:53;;;;;;;19.88;8.77;;;;;;;;;;4994144;28;20034;-68
2022/09/16 11:04:28;;;;;;;18.00;9.10;;;;;;;;;;4993653;28;20053;-65
2022/09/16 11:06:57;;;;;;;16.15;8.85;;;;;;;;;;4993619;28;20150;-65
2022/09/16 11:09:40;;;;;;;15.23;9.32;;;;;;;;;;4994220;28;20038;-66
2022/09/16 11:12:09;;;;;;;15.55;9.00;;;;;;;;;;4995073;28;20045;-66
2022/09/16 11:14:54;;;;;;;14.88;8.75;;;;;;;;;;4994791;28;20391;-64
2022/09/16 11:17:38;;;;;;;15.82;9.90;;;;;;;;;;4993633;28;20038;-66
2022/09/16 11:20:20;;;;;;;18.05;9.57;;;;;;;;;;4993711;28;20022;-66
2022/09/16 11:22:52;;;;;;;16.88;10.15;;;;;;;;;;4995896;28;20450;-65
2022/09/16 11:25:25;;;;;;;16.55;9.27;;;;;;;;;;4996145;28;20022;-65
2022/09/16 11:28:17;;;;;;;18.80;9.80;;;;;;;;;;4993340;28;20057;-66
2022/09/16 11:31:07;;;;;;;16.85;10.13;;;;;;;;;;4993850;28;20388;-65
2022/09/16 11:33:33;;;;;;;16.17;9.40;;;;;;;;;;4994732;28;20031;-60
2022/09/16 11:36:05;;;;;;;16.05;9.65;;;;;;;;;;4994349;28;20436;-63
2022/09/16 11:38:37;;;;;;;16.98;10.25;;;;;;;;;;4993252;28;20399;-64
2022/09/16 11:41:22;;;;;;;16.85;10.40;;;;;;;;;;4993083;28;20030;-63
2022/09/16 11:44:07;;;;;;;17.35;9.88;;;;;;;;;;4992320;28;20026;-62
2022/09/16 11:46:40;;;;;;;18.85;9.80;;;;;;;;;;4993228;28;20447;-62
2022/09/16 11:49:25;;;;;;;18.60;9.80;;;;;;;;;;4992514;28;20030;-64
2022/09/16 11:51:56;;;;;;;20.58;9.50;;;;;;;;;;4993215;28;20403;-64
2022/09/16 11:54:22;;;;;;;16.95;9.43;;;;;;;;;;4994594;28;20027;-63
2022/09/16 11:56:51;;;;;;;16.30;9.18;;;;;;;;;;4994408;28;20022;-63
2022/09/16 11:59:22;;;;;;;19.23;11.48;;;;;;;;;;4992998;28;20026;-64
2022/09/16 12:01:51;;;;;;;16.65;9.50;;;;;;;;;;4993194;28;20052;-64
2022/09/16 12:04:16;;;;;;;;;;;;;;;;;;4993362;28;20502;-65
2022/09/16 12:07:03;;;;;;;16.15;9.60;;;;;;;;;;4993853;28;19909;-65
2022/09/16 12:09:38;;;;;;;15.98;9.80;;;;;;;;;;5045389;22;20050;-56
2022/09/16 12:12:12;;;;;;;16.42;9.63;;;;;;;;;;5031326;28;20060;-56
2022/09/16 12:14:41;;;;;;;15.32;9.60;;;;;;;;;;5031069;28;20019;-56
2022/09/16 12:17:14;;;;;;;15.57;9.60;;;;;;;;;;5032573;28;20026;-65
2022/09/16 12:19:43;;;;;;;15.25;9.15;;;;;;;;;;5031443;28;20033;-67
2022/09/16 12:22:13;;;;;;;16.83;9.60;;;;;;;;;;5032818;28;20021;-68
2022/09/16 12:24:42;;;;;;;18.38;10.13;;;;;;;;;;5032502;28;20087;-67
2022/09/16 12:27:16;;;;;;;15.15;9.35;;;;;;;;;;5030951;28;20099;-68
2022/09/16 12:29:42;;;;;;;15.43;9.20;;;;;;;;;;5032406;28;20052;-67
2022/09/16 12:32:15;;;;;;;16.52;8.60;;;;;;;;;;5044421;28;20429;-65
2022/09/16 12:34:48;;;;;;;15.85;9.38;;;;;;;;;;5046566;28;20029;-57
2022/09/16 12:37:24;;;;;;;16.48;9.38;;;;;;;;;;5046778;28;20063;-55
2022/09/16 12:39:50;;;;;;;16.65;10.43;;;;;;;;;;5033808;28;20021;-67
2022/09/16 12:42:34;;;;;;;16.60;9.90;;;;;;;;;;5035889;28;20021;-58
2022/09/16 12:45:19;;;;;;;17.52;9.43;;;;;;;;;;5032265;28;20109;-62
2022/09/16 12:48:04;;;;;;;18.40;9.90;;;;;;;;;;5031645;28;20029;-60
2022/09/16 12:50:48;;;;;;;17.55;9.98;;;;;;;;;;5032119;28;20630;-61
2022/09/16 12:53:29;;;;;;;16.52;10.43;;;;;;;;;;5031831;28;20104;-61
2022/09/16 12:55:55;;;;;;;16.05;10.20;;;;;;;;;;5031820;28;20031;-63
2022/09/16 12:58:27;;;;;;;15.27;10.32;;;;;;;;;;5031556;28;20386;-64
2022/09/16 13:01:08;;;;;;;16.25;9.85;;;;;;;;;;5043225;28;20024;-64
2022/09/16 13:03:38;;;;;;;14.45;9.98;;;;;;;;;;5051838;28;20021;-65
2022/09/16 13:06:16;;;;;;;15.00;9.95;;;;;;;;;;5051286;28;20021;-63
2022/09/16 13:08:43;;;;;;;15.85;10.90;;;;;;;;;;5059710;28;20035;-66
2022/09/16 13:11:30;;;;;;;15.73;10.20;;;;;;;;;;5047695;28;20061;-66
2022/09/16 13:13:57;;;;;;;16.38;9.80;;;;;;;;;;5029887;28;20013;-64
2022/09/16 13:16:30;;;;;;;16.67;10.65;;;;;;;;;;5032065;28;20104;-63
2022/09/16 13:19:09;;;;;;;15.88;10.00;;;;;;;;;;5031847;28;20021;-64
2022/09/16 13:21:39;;;;;;;17.35;10.40;;;;;;;;;;5032758;28;20063;-62
2022/09/16 13:24:12;;;;;;;18.55;10.50;;;;;;;;;;5032204;28;20032;-62
2022/09/16 13:26:39;;;;;;;16.90;9.70;;;;;;;;;;5033396;28;20469;-63
2022/09/16 13:29:23;;;;;;;16.77;9.80;;;;;;;;;;5034168;28;20444;-63
2022/09/16 13:31:50;;;;;;;16.27;9.60;;;;;;;;;;5033393;28;20063;-62
2022/09/16 13:34:16;;;;;;;17.17;9.73;;;;;;;;;;5031033;28;20022;-62
2022/09/16 13:36:43;;;;;;;20.40;9.05;;;;;;;;;;5034387;28;20021;-62
2022/09/16 13:39:11;;;;;;;16.95;9.32;;;;;;;;;;5047039;28;20025;-59
2022/09/16 13:41:38;;;;;;;20.25;10.00;;;;;;;;;;5042635;28;20093;-63
2022/09/16 13:44:24;;;;;;;16.58;9.95;;;;;;;;;;5031896;28;20474;-63
2022/09/16 13:46:50;;;;;;;18.75;10.10;;;;;;;;;;5032044;28;20033;-63
2022/09/16 13:49:19;;;;;;;17.65;10.15;;;;;;;;;;5031821;28;20025;-63
2022/09/16 13:51:46;;;;;;;17.05;10.68;;;;;;;;;;5030939;28;20535;-64
2022/09/16 13:54:21;;;;;;;18.95;10.88;;;;;;;;;;5032379;28;20029;-65
2022/09/16 13:56:54;;;;;;;19.25;10.35;;;;;;;;;;5031918;28;20041;-65
2022/09/16 13:59:20;;;;;;;20.63;11.13;;;;;;;;;;5031185;28;20026;-63
2022/09/16 14:01:55;;;;;;;17.80;9.82;;;;;;;;;;5033095;28;20351;-65
2022/09/16 14:04:24;;;;;;;20.85;10.00;;;;;;;;;;5033819;28;20441;-67
2022/09/16 14:06:56;;;;;;;18.13;9.60;;;;;;;;;;5034201;28;20026;-63
2022/09/16 14:09:48;;;;;;;17.02;9.55;;;;;;;;;;5035100;28;20048;-62
2022/09/16 14:12:20;;;;;;;16.15;9.80;;;;;;;;;;5029409;28;20026;-62
2022/09/16 14:14:46;;;;;;;17.83;9.70;;;;;;;;;;5035216;28;20022;-62
2022/09/16 14:17:17;;;;;;;18.98;9.70;;;;;;;;;;5035610;28;20017;-63
2022/09/16 14:19:45;;;;;;;21.20;10.15;;;;;;;;;;4683548;28;10000327;-65
2022/09/16 14:22:11;;;;;;;19.83;10.65;;;;;;;;;;5029682;28;20025;-62
2022/09/16 14:24:38;;;;;;;17.95;10.52;;;;;;;;;;5033757;28;20033;-64
2022/09/16 14:27:05;;;;;;;16.98;9.48;;;;;;;;;;5032518;28;20022;-63
2022/09/16 14:29:31;;;;;;;18.23;9.40;;;;;;;;;;5034239;28;20026;-64
2022/09/16 14:31:57;;;;;;;16.95;9.48;;;;;;;;;;5033290;28;20033;-63
2022/09/16 14:34:23;;;;;;;16.00;9.77;;;;;;;;;;5033864;28;20025;-64
2022/09/16 14:36:49;;;;;;;15.75;9.60;;;;;;;;;;5033396;28;20025;-64
2022/09/16 14:39:17;;;;;;;15.68;9.35;;;;;;;;;;5037825;28;20116;-64
2022/09/16 14:41:46;;;;;;;17.13;9.45;;;;;;;;;;5038293;28;20026;-64
2022/09/16 14:44:18;;;;;;;18.98;9.68;;;;;;;;;;5039056;28;20080;-64
2022/09/16 14:46:55;;;;;;;18.58;9.52;;;;;;;;;;5034597;28;20087;-65
2022/09/16 14:49:22;;;;;;;18.45;9.98;;;;;;;;;;5031785;28;20470;-65